Time;durP1;ratioP1;P1;durP2;ratioP2;P2;SDS_P1;SDS_P2;PMS_P1;PMS_P2;Temp;Humidity;BMP_temperature;BMP_pressure;BME280_temperature;BME280_humidity;BME280_pressure;Samples;Min_cycle;Max_cycle;Signal;HPM_P1;HPM_P2
2021/05/05 00:01:10;;;;;;;1.63;0.70;;;;;;;;;;4981859;28;20064;-74
2021/05/05 00:03:37;;;;;;;2.40;0.68;;;;;;;;;;4981210;28;20061;-73
2021/05/05 00:06:03;;;;;;;1.50;0.70;;;;;;;;;;4984656;28;20070;-73
2021/05/05 00:08:30;;;;;;;1.50;0.60;;;;;;;;;;4983262;28;20062;-73
2021/05/05 00:10:57;;;;;;;1.50;0.60;;;;;;;;;;4984917;28;20402;-73
2021/05/05 00:13:24;;;;;;;1.35;0.63;;;;;;;;;;4979570;28;21415;-74
2021/05/05 00:15:50;;;;;;;1.10;0.60;;;;;;;;;;4984466;28;20066;-73
2021/05/05 00:18:17;;;;;;;1.65;0.60;;;;;;;;;;4985448;28;20062;-74
2021/05/05 00:20:43;;;;;;;0.93;0.60;;;;;;;;;;4983457;28;20120;-74
2021/05/05 00:23:09;;;;;;;1.95;0.60;;;;;;;;;;4980829;28;20058;-74
2021/05/05 00:25:36;;;;;;;0.93;0.60;;;;;;;;;;4982561;28;20062;-74
2021/05/05 00:28:02;;;;;;;1.95;0.68;;;;;;;;;;4984686;28;20058;-74
2021/05/05 00:30:29;;;;;;;2.25;0.65;;;;;;;;;;4983466;28;21372;-74
2021/05/05 00:32:55;;;;;;;1.15;0.57;;;;;;;;;;4984848;28;20581;-74
2021/05/05 00:35:22;;;;;;;1.92;0.63;;;;;;;;;;4982708;28;20069;-74
2021/05/05 00:37:48;;;;;;;0.95;0.50;;;;;;;;;;4983027;28;20081;-73
2021/05/05 00:40:15;;;;;;;1.60;0.70;;;;;;;;;;4972100;28;20133;-73
2021/05/05 00:42:42;;;;;;;1.35;0.60;;;;;;;;;;4961833;28;20561;-73
2021/05/05 00:45:13;;;;;;;1.88;0.68;;;;;;;;;;4983551;28;20038;-73
2021/05/05 00:47:39;;;;;;;1.03;0.50;;;;;;;;;;4981569;28;20477;-73
2021/05/05 00:50:08;;;;;;;0.82;0.50;;;;;;;;;;4981890;28;20100;-73
2021/05/05 00:52:35;;;;;;;2.13;0.60;;;;;;;;;;4996737;28;20416;-73
2021/05/05 00:55:01;;;;;;;1.70;0.80;;;;;;;;;;4981592;28;20168;-73
2021/05/05 00:57:28;;;;;;;1.55;0.65;;;;;;;;;;4986160;28;20120;-73
2021/05/05 00:59:54;;;;;;;1.77;0.60;;;;;;;;;;4987335;28;20065;-73
2021/05/05 01:02:21;;;;;;;1.70;0.60;;;;;;;;;;4985833;28;20069;-73
2021/05/05 01:04:47;;;;;;;1.63;0.77;;;;;;;;;;4987676;28;20517;-73
2021/05/05 01:07:14;;;;;;;1.13;0.60;;;;;;;;;;4986191;28;20085;-73
2021/05/05 01:09:42;;;;;;;0.95;0.50;;;;;;;;;;4988247;28;20128;-72
2021/05/05 01:12:09;;;;;;;1.67;0.70;;;;;;;;;;4987642;28;20058;-73
2021/05/05 01:14:36;;;;;;;1.02;0.60;;;;;;;;;;4985116;28;20284;-73
2021/05/05 01:17:02;;;;;;;1.25;0.68;;;;;;;;;;4985428;28;20109;-73
2021/05/05 01:19:29;;;;;;;1.58;0.77;;;;;;;;;;4985834;28;20685;-73
2021/05/05 01:21:55;;;;;;;0.82;0.50;;;;;;;;;;4986724;28;20073;-72
2021/05/05 01:24:21;;;;;;;1.38;0.52;;;;;;;;;;4985013;28;20057;-73
2021/05/05 01:26:48;;;;;;;1.08;0.50;;;;;;;;;;4986998;28;20070;-73
2021/05/05 01:29:14;;;;;;;1.30;0.60;;;;;;;;;;4986362;28;20065;-73
2021/05/05 01:31:41;;;;;;;1.00;0.50;;;;;;;;;;4988158;28;20140;-73
2021/05/05 01:34:07;;;;;;;1.88;0.60;;;;;;;;;;5001143;28;20073;-73
2021/05/05 01:36:35;;;;;;;1.80;0.77;;;;;;;;;;4992293;28;20107;-73
2021/05/05 01:39:02;;;;;;;2.15;0.68;;;;;;;;;;4986725;28;20458;-74
2021/05/05 01:41:28;;;;;;;1.45;0.68;;;;;;;;;;4979365;28;20062;-73
2021/05/05 01:43:55;;;;;;;1.65;0.60;;;;;;;;;;4985977;28;20042;-74
2021/05/05 01:46:22;;;;;;;1.17;0.50;;;;;;;;;;4981233;28;20090;-74
2021/05/05 01:48:49;;;;;;;1.73;0.68;;;;;;;;;;5015040;28;20704;-73
2021/05/05 01:51:16;;;;;;;1.55;0.70;;;;;;;;;;4985011;28;20058;-74
2021/05/05 01:53:42;;;;;;;1.42;0.55;;;;;;;;;;4968825;28;20054;-73
2021/05/05 01:56:08;;;;;;;1.40;0.60;;;;;;;;;;4987101;28;20082;-73
2021/05/05 01:58:36;;;;;;;1.48;0.73;;;;;;;;;;4965601;28;20097;-73
2021/05/05 02:01:04;;;;;;;1.55;0.57;;;;;;;;;;4986089;28;20651;-74
2021/05/05 02:03:30;;;;;;;2.00;0.55;;;;;;;;;;4981752;28;20128;-74
2021/05/05 02:05:57;;;;;;;2.03;0.57;;;;;;;;;;4985025;28;20632;-74
2021/05/05 02:08:23;;;;;;;0.73;0.43;;;;;;;;;;4983900;28;20062;-74
2021/05/05 02:10:50;;;;;;;1.23;0.60;;;;;;;;;;4987239;28;20140;-74
2021/05/05 02:13:16;;;;;;;1.27;0.63;;;;;;;;;;4983017;28;20143;-75
2021/05/05 02:15:43;;;;;;;1.55;0.60;;;;;;;;;;4987037;28;20478;-73
2021/05/05 02:18:12;;;;;;;1.60;0.68;;;;;;;;;;4986851;28;20053;-74
2021/05/05 02:20:39;;;;;;;2.63;0.70;;;;;;;;;;4983802;28;20620;-74
2021/05/05 02:23:05;;;;;;;2.15;0.70;;;;;;;;;;4986294;28;20092;-74
2021/05/05 02:25:32;;;;;;;1.40;0.60;;;;;;;;;;4984166;28;20477;-74
2021/05/05 02:27:58;;;;;;;2.10;0.65;;;;;;;;;;4987980;28;20070;-74
2021/05/05 02:30:26;;;;;;;1.30;0.60;;;;;;;;;;5000791;28;20076;-74
2021/05/05 02:32:53;;;;;;;1.15;0.60;;;;;;;;;;4984122;28;20460;-74
2021/05/05 02:35:20;;;;;;;1.42;0.70;;;;;;;;;;4984427;28;20466;-74
2021/05/05 02:37:46;;;;;;;1.38;0.50;;;;;;;;;;5000374;28;20131;-74
2021/05/05 02:40:14;;;;;;;1.08;0.60;;;;;;;;;;4986828;28;20061;-73
2021/05/05 02:42:41;;;;;;;1.67;0.60;;;;;;;;;;4984313;28;20127;-73
2021/05/05 02:45:08;;;;;;;0.98;0.60;;;;;;;;;;4983564;28;20169;-75
2021/05/05 02:47:34;;;;;;;1.15;0.55;;;;;;;;;;4963333;28;20132;-74
2021/05/05 02:50:01;;;;;;;1.30;0.60;;;;;;;;;;4999857;28;20573;-74
2021/05/05 02:52:27;;;;;;;1.92;0.50;;;;;;;;;;4984846;28;20069;-73
2021/05/05 02:54:54;;;;;;;2.05;0.50;;;;;;;;;;4986104;28;20049;-73
2021/05/05 02:57:20;;;;;;;0.93;0.50;;;;;;;;;;4983145;28;20066;-73
2021/05/05 02:59:47;;;;;;;0.98;0.60;;;;;;;;;;4999514;28;20077;-73
2021/05/05 03:02:13;;;;;;;1.48;0.38;;;;;;;;;;4983087;28;20122;-72
2021/05/05 03:04:40;;;;;;;2.67;0.63;;;;;;;;;;4998694;28;20073;-73
2021/05/05 03:07:06;;;;;;;1.75;0.50;;;;;;;;;;4986027;28;20089;-72
2021/05/05 03:09:33;;;;;;;1.00;0.40;;;;;;;;;;4978624;28;20069;-72
2021/05/05 03:11:59;;;;;;;1.70;0.50;;;;;;;;;;4985499;28;20094;-72
2021/05/05 03:14:26;;;;;;;1.42;0.57;;;;;;;;;;5000278;28;20065;-74
2021/05/05 03:16:53;;;;;;;1.33;0.50;;;;;;;;;;4983393;28;20038;-73
2021/05/05 03:19:20;;;;;;;1.13;0.50;;;;;;;;;;4982709;28;20070;-74
2021/05/05 03:21:46;;;;;;;1.00;0.50;;;;;;;;;;4961853;28;20214;-73
2021/05/05 03:24:13;;;;;;;1.60;0.60;;;;;;;;;;4975805;28;20061;-73
2021/05/05 03:26:40;;;;;;;1.30;0.60;;;;;;;;;;4982966;28;20153;-73
2021/05/05 03:29:07;;;;;;;1.70;0.60;;;;;;;;;;4996827;28;20062;-73
2021/05/05 03:31:34;;;;;;;1.80;0.63;;;;;;;;;;4982616;28;20412;-74
2021/05/05 03:34:01;;;;;;;1.38;0.50;;;;;;;;;;4983661;28;20074;-75
2021/05/05 03:36:27;;;;;;;1.30;0.45;;;;;;;;;;4982387;28;20038;-75
2021/05/05 03:38:54;;;;;;;0.63;0.40;;;;;;;;;;4983840;28;20058;-75
2021/05/05 03:41:20;;;;;;;1.52;0.50;;;;;;;;;;4997947;28;20069;-75
2021/05/05 03:43:47;;;;;;;1.10;0.55;;;;;;;;;;4982407;28;20046;-74
2021/05/05 03:46:13;;;;;;;1.33;0.60;;;;;;;;;;4975680;28;20038;-75
2021/05/05 03:48:40;;;;;;;1.88;0.47;;;;;;;;;;4983157;28;20070;-75
2021/05/05 03:51:07;;;;;;;1.95;0.63;;;;;;;;;;4983572;28;20093;-74
2021/05/05 03:53:33;;;;;;;0.80;0.40;;;;;;;;;;4983712;28;20124;-74
2021/05/05 03:55:59;;;;;;;0.85;0.45;;;;;;;;;;4984491;28;20042;-75
2021/05/05 03:58:26;;;;;;;1.80;0.50;;;;;;;;;;4983513;28;20061;-76
2021/05/05 04:00:52;;;;;;;1.05;0.50;;;;;;;;;;4985069;28;20088;-75
2021/05/05 04:03:19;;;;;;;1.20;0.43;;;;;;;;;;4983818;28;20116;-76
2021/05/05 04:05:45;;;;;;;0.85;0.43;;;;;;;;;;4983303;28;20078;-75
2021/05/05 04:08:12;;;;;;;1.58;0.50;;;;;;;;;;4973979;28;20118;-75
2021/05/05 04:10:38;;;;;;;1.50;0.50;;;;;;;;;;4958412;28;20413;-75
2021/05/05 04:13:05;;;;;;;1.40;0.40;;;;;;;;;;4981359;28;20174;-74
2021/05/05 04:15:31;;;;;;;1.05;0.60;;;;;;;;;;4964711;28;20062;-75
2021/05/05 04:17:58;;;;;;;1.98;0.60;;;;;;;;;;4982059;28;20831;-75
2021/05/05 04:20:24;;;;;;;0.80;0.40;;;;;;;;;;4976658;28;20450;-74
2021/05/05 04:22:51;;;;;;;1.58;0.60;;;;;;;;;;4982004;28;20105;-74
2021/05/05 04:25:18;;;;;;;1.88;0.60;;;;;;;;;;4983110;28;20065;-74
2021/05/05 04:27:46;;;;;;;1.73;0.50;;;;;;;;;;4982626;28;20101;-76
2021/05/05 04:30:13;;;;;;;1.88;0.57;;;;;;;;;;4999623;28;20065;-75
2021/05/05 04:32:41;;;;;;;1.70;0.57;;;;;;;;;;4988554;28;20066;-73
2021/05/05 04:35:08;;;;;;;0.82;0.30;;;;;;;;;;4987087;28;20104;-73
2021/05/05 04:37:35;;;;;;;1.98;0.70;;;;;;;;;;4987356;28;20139;-73
2021/05/05 04:40:03;;;;;;;0.82;0.30;;;;;;;;;;4988233;28;20077;-73
2021/05/05 04:42:29;;;;;;;2.08;0.50;;;;;;;;;;4987310;28;20144;-74
2021/05/05 04:44:56;;;;;;;2.83;0.77;;;;;;;;;;4988427;28;20090;-74
2021/05/05 04:47:22;;;;;;;1.05;0.47;;;;;;;;;;4969059;28;20561;-75
2021/05/05 04:49:48;;;;;;;1.73;0.60;;;;;;;;;;4988806;28;20125;-74
2021/05/05 04:52:15;;;;;;;1.48;0.43;;;;;;;;;;4988336;28;20057;-74
2021/05/05 04:54:41;;;;;;;0.88;0.40;;;;;;;;;;4988452;28;20541;-73
2021/05/05 04:57:08;;;;;;;1.60;0.52;;;;;;;;;;4986931;28;20081;-74
2021/05/05 04:59:34;;;;;;;4.15;1.10;;;;;;;;;;4988282;28;20439;-74
2021/05/05 05:02:00;;;;;;;1.60;0.40;;;;;;;;;;4984435;28;20062;-74
2021/05/05 05:04:27;;;;;;;2.90;0.60;;;;;;;;;;4987463;28;20591;-73
2021/05/05 05:06:53;;;;;;;1.80;0.60;;;;;;;;;;5016467;28;20065;-74
2021/05/05 05:09:20;;;;;;;1.40;0.43;;;;;;;;;;4982622;28;20053;-73
2021/05/05 05:11:47;;;;;;;0.75;0.30;;;;;;;;;;4986872;28;21000;-74
2021/05/05 05:14:14;;;;;;;1.05;0.63;;;;;;;;;;4986984;28;20034;-74
2021/05/05 05:16:40;;;;;;;1.27;0.43;;;;;;;;;;4969948;28;20140;-74
2021/05/05 05:19:07;;;;;;;0.77;0.40;;;;;;;;;;5017547;28;20058;-73
2021/05/05 05:21:33;;;;;;;1.35;0.47;;;;;;;;;;4986675;28;20058;-74
2021/05/05 05:23:59;;;;;;;0.88;0.40;;;;;;;;;;4985279;28;20050;-73
2021/05/05 05:26:26;;;;;;;1.00;0.40;;;;;;;;;;4986846;28;20074;-74
2021/05/05 05:28:52;;;;;;;1.02;0.45;;;;;;;;;;5002115;28;20061;-74
2021/05/05 05:31:19;;;;;;;2.10;0.50;;;;;;;;;;4986645;28;20479;-75
2021/05/05 05:33:45;;;;;;;0.88;0.40;;;;;;;;;;4986353;28;20074;-74
2021/05/05 05:36:11;;;;;;;0.98;0.55;;;;;;;;;;4985076;28;20069;-74
2021/05/05 05:38:38;;;;;;;1.83;0.47;;;;;;;;;;4985646;28;20108;-75
2021/05/05 05:41:05;;;;;;;1.13;0.50;;;;;;;;;;4988236;28;20061;-74
2021/05/05 05:43:31;;;;;;;1.55;0.30;;;;;;;;;;4986312;28;20066;-73
2021/05/05 05:45:57;;;;;;;1.95;0.40;;;;;;;;;;4978769;28;20062;-73
2021/05/05 05:48:24;;;;;;;0.60;0.30;;;;;;;;;;4967659;28;20105;-74
2021/05/05 05:50:50;;;;;;;0.95;0.35;;;;;;;;;;4987086;28;20513;-74
2021/05/05 05:53:17;;;;;;;1.65;0.40;;;;;;;;;;4978867;28;20450;-74
2021/05/05 05:55:44;;;;;;;1.35;0.30;;;;;;;;;;4986958;28;20469;-73
2021/05/05 05:58:11;;;;;;;0.65;0.40;;;;;;;;;;5001610;28;20070;-74
2021/05/05 06:00:37;;;;;;;0.85;0.30;;;;;;;;;;4984744;28;20066;-74
2021/05/05 06:03:05;;;;;;;0.50;0.30;;;;;;;;;;5003004;28;20153;-73
2021/05/05 06:05:34;;;;;;;1.73;0.60;;;;;;;;;;4985559;28;20785;-73
2021/05/05 06:08:02;;;;;;;1.08;0.30;;;;;;;;;;4985893;28;20085;-73
2021/05/05 06:10:28;;;;;;;0.90;0.40;;;;;;;;;;4985222;28;20070;-74
2021/05/05 06:12:55;;;;;;;1.15;0.47;;;;;;;;;;4985535;28;20116;-78
2021/05/05 06:15:21;;;;;;;0.82;0.30;;;;;;;;;;4985133;28;20159;-76
2021/05/05 06:17:48;;;;;;;0.60;0.20;;;;;;;;;;4987428;28;20062;-75
2021/05/05 06:20:15;;;;;;;1.38;0.40;;;;;;;;;;4992455;28;20611;-74
2021/05/05 06:22:41;;;;;;;0.75;0.40;;;;;;;;;;4983958;28;20131;-74
2021/05/05 06:25:08;;;;;;;1.30;0.50;;;;;;;;;;4986771;28;20104;-74
2021/05/05 06:27:35;;;;;;;0.90;0.32;;;;;;;;;;4985920;28;20066;-73
2021/05/05 06:30:01;;;;;;;1.25;0.43;;;;;;;;;;4962492;28;20065;-74
2021/05/05 06:32:28;;;;;;;1.35;0.30;;;;;;;;;;4983735;28;20088;-76
2021/05/05 06:34:54;;;;;;;1.17;0.47;;;;;;;;;;4985843;28;20105;-75
2021/05/05 06:37:22;;;;;;;1.48;0.40;;;;;;;;;;5002622;28;20050;-78
2021/05/05 06:39:49;;;;;;;1.00;0.30;;;;;;;;;;5000352;28;20553;-78
2021/05/05 06:42:16;;;;;;;1.20;0.35;;;;;;;;;;4994252;28;20038;-77
2021/05/05 06:44:42;;;;;;;0.77;0.43;;;;;;;;;;4988210;28;20061;-78
2021/05/05 06:47:10;;;;;;;2.65;0.43;;;;;;;;;;4985054;28;20583;-81
2021/05/05 06:49:36;;;;;;;2.28;0.47;;;;;;;;;;4986899;28;20038;-79
2021/05/05 06:52:03;;;;;;;0.93;0.30;;;;;;;;;;4980879;28;20054;-79
2021/05/05 06:54:30;;;;;;;2.15;0.40;;;;;;;;;;4985271;28;20069;-79
2021/05/05 06:56:57;;;;;;;1.10;0.50;;;;;;;;;;4983758;28;20041;-80
2021/05/05 06:59:23;;;;;;;0.40;0.30;;;;;;;;;;5016633;28;20507;-80
2021/05/05 07:01:50;;;;;;;1.23;0.38;;;;;;;;;;4978400;28;20066;-79
2021/05/05 07:04:16;;;;;;;1.73;0.40;;;;;;;;;;4982337;28;20066;-79
2021/05/05 07:06:43;;;;;;;1.50;0.40;;;;;;;;;;5000424;28;20132;-79
2021/05/05 07:09:09;;;;;;;0.85;0.40;;;;;;;;;;4984668;28;20599;-80
2021/05/05 07:11:38;;;;;;;2.08;0.40;;;;;;;;;;4982774;28;20061;-79
2021/05/05 07:14:05;;;;;;;1.17;0.40;;;;;;;;;;4984034;28;20062;-79
2021/05/05 07:16:31;;;;;;;1.00;0.40;;;;;;;;;;4985709;28;20070;-79
2021/05/05 07:18:58;;;;;;;1.00;0.45;;;;;;;;;;4984388;28;20134;-79
2021/05/05 07:21:26;;;;;;;1.73;0.30;;;;;;;;;;4984067;28;20057;-79
2021/05/05 07:23:52;;;;;;;2.22;0.60;;;;;;;;;;4981969;28;20062;-79
2021/05/05 07:26:19;;;;;;;0.40;0.30;;;;;;;;;;4967476;28;20588;-78
2021/05/05 07:28:46;;;;;;;0.47;0.40;;;;;;;;;;4984501;28;20742;-79
2021/05/05 07:31:13;;;;;;;2.03;0.50;;;;;;;;;;4978985;28;20087;-78
2021/05/05 07:33:39;;;;;;;0.73;0.30;;;;;;;;;;4984385;28;20579;-79
2021/05/05 07:36:15;;;;;;;1.60;0.40;;;;;;;;;;5000885;28;20070;-79
2021/05/05 07:44:16;;;;;;;4.10;0.60;;;;;;;;;;4979453;28;20063;-78
2021/05/05 07:46:41;;;;;;;1.80;0.40;;;;;;;;;;4980822;28;20093;-79
2021/05/05 07:49:10;;;;;;;1.67;0.52;;;;;;;;;;4969433;28;20085;-79
2021/05/05 07:51:36;;;;;;;1.08;0.43;;;;;;;;;;4981946;28;20089;-79
2021/05/05 07:54:03;;;;;;;0.90;0.52;;;;;;;;;;4968598;28;20065;-78
2021/05/05 07:56:29;;;;;;;1.58;0.45;;;;;;;;;;4982733;28;20120;-79
2021/05/05 07:59:01;;;;;;;0.90;0.43;;;;;;;;;;4991591;28;20121;-78
2021/05/05 08:01:28;;;;;;;1.25;0.38;;;;;;;;;;4979015;28;20074;-79
2021/05/05 08:03:54;;;;;;;1.25;0.55;;;;;;;;;;5000346;28;20034;-78
2021/05/05 08:06:20;;;;;;;1.77;0.50;;;;;;;;;;4983490;28;20066;-79
2021/05/05 08:08:47;;;;;;;2.00;0.50;;;;;;;;;;4981217;28;20058;-79
2021/05/05 08:11:13;;;;;;;1.52;0.50;;;;;;;;;;4979865;28;20509;-79
2021/05/05 08:13:41;;;;;;;1.83;0.50;;;;;;;;;;4964166;28;20057;-80
2021/05/05 08:16:08;;;;;;;0.88;0.40;;;;;;;;;;4983783;28;20062;-80
2021/05/05 08:18:35;;;;;;;1.13;0.40;;;;;;;;;;4982816;28;20062;-79
2021/05/05 08:21:03;;;;;;;1.35;0.50;;;;;;;;;;4992956;28;20069;-80
2021/05/05 08:23:29;;;;;;;1.20;0.50;;;;;;;;;;4999168;28;20082;-79
2021/05/05 08:25:56;;;;;;;1.73;0.60;;;;;;;;;;4983919;28;20073;-73
2021/05/05 08:28:22;;;;;;;1.60;0.60;;;;;;;;;;4967064;28;20050;-73
2021/05/05 08:30:49;;;;;;;2.83;0.70;;;;;;;;;;4986300;28;20076;-70
2021/05/05 08:33:15;;;;;;;2.25;0.60;;;;;;;;;;4982302;28;20058;-73
2021/05/05 08:35:41;;;;;;;3.47;0.90;;;;;;;;;;4983377;28;20054;-71
2021/05/05 08:38:08;;;;;;;3.65;0.70;;;;;;;;;;4981316;28;20125;-70
2021/05/05 08:40:34;;;;;;;2.95;0.65;;;;;;;;;;4980714;28;20125;-73
2021/05/05 08:43:01;;;;;;;2.72;0.80;;;;;;;;;;4984118;28;20442;-71
2021/05/05 08:45:29;;;;;;;2.58;0.55;;;;;;;;;;4997055;28;20066;-71
2021/05/05 08:47:56;;;;;;;2.53;0.85;;;;;;;;;;4974356;28;20066;-72
2021/05/05 08:50:25;;;;;;;2.60;0.60;;;;;;;;;;4982045;28;20065;-72
2021/05/05 08:52:51;;;;;;;1.48;0.60;;;;;;;;;;4984466;28;20074;-72
2021/05/05 08:55:20;;;;;;;1.48;0.70;;;;;;;;;;4980770;28;20066;-72
2021/05/05 08:57:47;;;;;;;2.00;0.57;;;;;;;;;;4980401;28;20465;-72
2021/05/05 09:00:15;;;;;;;3.03;0.50;;;;;;;;;;4963425;28;20121;-72
2021/05/05 09:02:41;;;;;;;1.20;0.40;;;;;;;;;;4979445;28;20058;-72
2021/05/05 09:05:10;;;;;;;1.58;0.50;;;;;;;;;;4982798;28;20081;-72
2021/05/05 09:07:40;;;;;;;2.22;0.60;;;;;;;;;;4981876;28;21207;-73
2021/05/05 09:10:18;;;;;;;1.40;0.50;;;;;;;;;;4978378;28;20120;-72
2021/05/05 09:12:45;;;;;;;1.27;0.43;;;;;;;;;;4960804;28;20086;-71
2021/05/05 09:15:18;;;;;;;2.00;0.50;;;;;;;;;;4977410;28;20113;-73
2021/05/05 09:17:49;;;;;;;1.85;0.70;;;;;;;;;;4970092;28;20156;-72
2021/05/05 09:20:32;;;;;;;1.25;0.50;;;;;;;;;;4983897;28;20092;-72
2021/05/05 09:22:59;;;;;;;1.42;0.50;;;;;;;;;;5001326;28;20069;-72
2021/05/05 09:25:32;;;;;;;2.42;0.43;;;;;;;;;;4980101;28;20101;-72
2021/05/05 09:28:15;;;;;;;1.70;0.55;;;;;;;;;;4992736;28;20070;-72
2021/05/05 09:30:43;;;;;;;1.20;0.40;;;;;;;;;;4976682;28;20210;-72
2021/05/05 09:33:09;;;;;;;1.65;0.40;;;;;;;;;;4985242;28;20458;-72
2021/05/05 09:35:41;;;;;;;1.52;0.60;;;;;;;;;;4984396;28;20066;-72
2021/05/05 09:38:11;;;;;;;1.40;0.50;;;;;;;;;;4984627;28;20092;-72
2021/05/05 09:40:43;;;;;;;0.60;0.30;;;;;;;;;;4968698;28;20057;-72
2021/05/05 09:43:16;;;;;;;2.00;0.55;;;;;;;;;;4984534;28;20077;-72
2021/05/05 09:45:43;;;;;;;0.90;0.55;;;;;;;;;;4981608;28;20370;-72
2021/05/05 09:48:10;;;;;;;1.55;0.50;;;;;;;;;;4985998;28;20497;-73
2021/05/05 09:50:42;;;;;;;1.83;0.47;;;;;;;;;;4984153;28;20061;-72
2021/05/05 09:53:08;;;;;;;;;;;;;;;;;;4986711;28;20500;-72
2021/05/05 09:55:34;;;;;;;0.45;0.30;;;;;;;;;;4984415;28;19933;-72
2021/05/05 09:58:19;;;;;;;0.98;0.40;;;;;;;;;;4986469;28;20124;-72
2021/05/05 10:00:46;;;;;;;1.52;0.60;;;;;;;;;;4975303;28;20342;-73
2021/05/05 10:03:12;;;;;;;0.98;0.45;;;;;;;;;;4984401;28;20141;-73
2021/05/05 10:05:39;;;;;;;1.13;0.35;;;;;;;;;;4981149;28;20424;-72
2021/05/05 10:08:08;;;;;;;1.10;0.40;;;;;;;;;;4986218;28;20074;-72
2021/05/05 10:10:38;;;;;;;1.52;0.30;;;;;;;;;;4983284;28;20038;-72
2021/05/05 10:13:06;;;;;;;0.32;0.30;;;;;;;;;;4983190;28;20727;-72
2021/05/05 10:15:36;;;;;;;1.10;0.40;;;;;;;;;;4983545;28;20066;-72
2021/05/05 10:18:03;;;;;;;0.65;0.20;;;;;;;;;;4985015;28;20136;-73
2021/05/05 10:20:31;;;;;;;1.00;0.47;;;;;;;;;;4984738;28;20077;-72
2021/05/05 10:23:01;;;;;;;0.68;0.32;;;;;;;;;;4980463;28;20046;-72
2021/05/05 10:25:28;;;;;;;1.30;0.40;;;;;;;;;;4978347;28;20589;-73
2021/05/05 10:27:55;;;;;;;1.40;0.47;;;;;;;;;;4982847;28;20070;-73
2021/05/05 10:30:24;;;;;;;1.80;0.50;;;;;;;;;;4976908;28;20561;-73
2021/05/05 10:32:51;;;;;;;1.05;0.40;;;;;;;;;;4981419;28;20477;-73
2021/05/05 10:35:19;;;;;;;1.60;0.60;;;;;;;;;;4981956;28;20200;-73
2021/05/05 10:37:49;;;;;;;0.80;0.40;;;;;;;;;;4986365;28;20116;-73
2021/05/05 10:40:20;;;;;;;1.30;0.43;;;;;;;;;;4984834;28;20069;-73
2021/05/05 10:42:55;;;;;;;2.35;0.30;;;;;;;;;;4981700;28;20549;-73
2021/05/05 10:45:35;;;;;;;0.70;0.30;;;;;;;;;;4998736;28;20053;-73
2021/05/05 10:48:17;;;;;;;1.00;0.40;;;;;;;;;;4984814;28;20070;-72
2021/05/05 10:50:50;;;;;;;1.17;0.30;;;;;;;;;;4983061;28;20221;-72
2021/05/05 10:53:17;;;;;;;1.27;0.50;;;;;;;;;;4985308;28;20066;-72
2021/05/05 10:55:45;;;;;;;1.25;0.45;;;;;;;;;;4984555;28;20132;-72
2021/05/05 10:58:16;;;;;;;1.48;0.38;;;;;;;;;;5000905;28;20068;-75
2021/05/05 11:00:46;;;;;;;1.73;0.70;;;;;;;;;;4986373;28;20090;-72
2021/05/05 11:03:13;;;;;;;1.40;0.40;;;;;;;;;;4985046;28;20172;-72
2021/05/05 11:05:41;;;;;;;0.90;0.40;;;;;;;;;;4986694;28;20115;-72
2021/05/05 11:08:25;;;;;;;1.05;0.50;;;;;;;;;;4981092;28;20124;-72
2021/05/05 11:10:52;;;;;;;1.90;0.50;;;;;;;;;;4984373;28;20164;-72
2021/05/05 11:13:22;;;;;;;1.77;0.50;;;;;;;;;;4981881;28;20066;-72
2021/05/05 11:15:49;;;;;;;1.13;0.45;;;;;;;;;;4978227;28;20518;-72
2021/05/05 11:18:27;;;;;;;0.93;0.47;;;;;;;;;;4999200;28;20124;-73
2021/05/05 11:20:55;;;;;;;0.32;0.30;;;;;;;;;;4984408;28;20065;-71
2021/05/05 11:23:33;;;;;;;1.23;0.35;;;;;;;;;;4984261;28;20455;-73
2021/05/05 11:26:19;;;;;;;1.45;0.47;;;;;;;;;;4984396;28;20078;-72
2021/05/05 11:29:01;;;;;;;2.00;0.55;;;;;;;;;;4982978;28;20136;-72
2021/05/05 11:34:19;;;;;;;2.00;0.40;;;;;;;;;;4983355;28;20574;-72
2021/05/05 11:37:01;;;;;;;2.45;0.45;;;;;;;;;;4984260;28;20077;-72
2021/05/05 11:39:27;;;;;;;;;;;;;;;;;;4997415;28;20438;-72
2021/05/05 11:42:11;;;;;;;0.88;0.40;;;;;;;;;;4995506;28;20009;-70
2021/05/05 11:44:41;;;;;;;1.20;0.60;;;;;;;;;;4981320;28;20673;-71
2021/05/05 11:47:15;;;;;;;0.75;0.35;;;;;;;;;;4983096;28;20077;-71
2021/05/05 11:49:43;;;;;;;0.80;0.40;;;;;;;;;;4961109;28;20093;-71
2021/05/05 11:52:36;;;;;;;1.23;0.45;;;;;;;;;;4977894;28;20581;-71
2021/05/05 11:55:11;;;;;;;1.63;0.50;;;;;;;;;;4971979;28;20501;-71
2021/05/05 11:57:38;;;;;;;0.63;0.40;;;;;;;;;;4982101;28;20050;-71
2021/05/05 12:00:11;;;;;;;0.88;0.38;;;;;;;;;;4997332;28;20065;-71
2021/05/05 12:02:47;;;;;;;1.73;0.40;;;;;;;;;;4988961;28;20092;-71
2021/05/05 12:05:22;;;;;;;0.98;0.30;;;;;;;;;;4980986;28;20065;-71
2021/05/05 12:08:07;;;;;;;2.38;0.45;;;;;;;;;;4985020;28;20066;-71
2021/05/05 12:10:34;;;;;;;0.95;0.40;;;;;;;;;;4983453;28;20057;-70
2021/05/05 12:13:16;;;;;;;0.70;0.40;;;;;;;;;;4983251;28;20069;-71
2021/05/05 12:15:56;;;;;;;0.70;0.40;;;;;;;;;;4981327;28;20714;-71
2021/05/05 12:18:32;;;;;;;1.88;0.50;;;;;;;;;;4983693;28;20097;-71
2021/05/05 12:21:14;;;;;;;4.63;0.50;;;;;;;;;;4982375;28;20128;-71
2021/05/05 12:23:41;;;;;;;2.67;0.70;;;;;;;;;;4976398;28;20081;-71
2021/05/05 12:26:12;;;;;;;2.20;0.55;;;;;;;;;;4984462;28;20038;-71
2021/05/05 12:28:39;;;;;;;1.95;0.40;;;;;;;;;;4980850;28;20317;-71
2021/05/05 12:31:05;;;;;;;2.45;0.60;;;;;;;;;;4982868;28;20066;-70
2021/05/05 12:33:33;;;;;;;0.82;0.40;;;;;;;;;;4965917;28;20073;-71
2021/05/05 12:36:01;;;;;;;0.80;0.38;;;;;;;;;;4984388;28;20073;-71
2021/05/05 12:38:32;;;;;;;1.98;0.50;;;;;;;;;;4982290;28;20069;-71
2021/05/05 12:41:06;;;;;;;1.42;0.50;;;;;;;;;;4981390;28;20065;-71
2021/05/05 12:43:32;;;;;;;1.73;0.38;;;;;;;;;;4984038;28;21680;-72
2021/05/05 12:46:00;;;;;;;3.35;0.50;;;;;;;;;;4982382;28;20131;-72
2021/05/05 12:48:39;;;;;;;1.50;0.50;;;;;;;;;;4981513;28;20077;-72
2021/05/05 12:51:07;;;;;;;3.55;0.70;;;;;;;;;;4983851;28;20039;-72
2021/05/05 12:53:53;;;;;;;2.20;0.43;;;;;;;;;;4985667;28;20169;-71
2021/05/05 12:56:20;;;;;;;1.88;0.60;;;;;;;;;;4985028;28;20128;-72
2021/05/05 12:58:48;;;;;;;5.47;0.57;;;;;;;;;;4984244;28;20062;-71
2021/05/05 13:01:15;;;;;;;2.65;0.73;;;;;;;;;;4983822;28;20136;-71
2021/05/05 13:03:42;;;;;;;2.03;0.70;;;;;;;;;;4986036;28;20069;-71
2021/05/05 13:06:10;;;;;;;1.15;0.60;;;;;;;;;;4985897;28;20066;-70
2021/05/05 13:11:24;;;;;;;3.30;0.98;;;;;;;;;;4985472;28;20116;-71
2021/05/05 13:13:54;;;;;;;7.38;0.90;;;;;;;;;;4984007;28;20066;-71
2021/05/05 13:16:42;;;;;;;2.95;0.70;;;;;;;;;;4984014;28;20065;-71
2021/05/05 13:32:53;;;;;;;3.05;0.63;;;;;;;;;;4984059;28;20260;-71
2021/05/05 13:35:28;;;;;;;2.88;0.50;;;;;;;;;;4985587;28;20066;-71
2021/05/05 13:37:54;;;;;;;3.08;0.80;;;;;;;;;;4988076;28;20065;-71
2021/05/05 13:40:21;;;;;;;3.33;0.60;;;;;;;;;;4986757;28;20163;-71
2021/05/05 13:42:48;;;;;;;0.98;0.52;;;;;;;;;;4983119;28;20069;-71
2021/05/05 13:45:15;;;;;;;1.10;0.70;;;;;;;;;;4986185;28;20175;-71
2021/05/05 13:48:28;;;;;;;3.58;0.60;;;;;;;;;;4987567;28;20103;-71
2021/05/05 13:50:32;;;;;;;3.80;0.65;;;;;;;;;;4975196;28;20471;-70
2021/05/05 13:52:59;;;;;;;1.17;0.50;;;;;;;;;;4987302;28;20124;-72
2021/05/05 13:55:25;;;;;;;1.15;0.70;;;;;;;;;;4986050;28;20073;-71
2021/05/05 13:57:51;;;;;;;2.75;0.82;;;;;;;;;;4985182;28;20058;-71
2021/05/05 14:00:18;;;;;;;1.70;0.60;;;;;;;;;;4981502;28;20573;-71
2021/05/05 14:02:44;;;;;;;1.38;0.60;;;;;;;;;;4981627;28;20076;-71
2021/05/05 14:05:13;;;;;;;1.45;0.60;;;;;;;;;;4985038;28;20459;-71
2021/05/05 14:07:40;;;;;;;1.73;0.60;;;;;;;;;;4984846;28;20347;-71
2021/05/05 14:10:09;;;;;;;1.20;0.60;;;;;;;;;;4964154;28;20567;-71
2021/05/05 14:12:36;;;;;;;1.48;0.60;;;;;;;;;;4979279;28;20074;-70
2021/05/05 14:15:04;;;;;;;1.42;0.60;;;;;;;;;;5002487;28;20073;-70
2021/05/05 14:17:36;;;;;;;1.75;0.60;;;;;;;;;;4984225;28;20065;-70
2021/05/05 14:20:04;;;;;;;2.53;0.70;;;;;;;;;;4986182;28;20057;-71
2021/05/05 14:22:31;;;;;;;0.98;0.50;;;;;;;;;;4985605;28;20073;-71
2021/05/05 14:25:02;;;;;;;2.42;0.65;;;;;;;;;;4981769;28;20181;-70
2021/05/05 14:27:29;;;;;;;1.52;0.60;;;;;;;;;;4982057;28;20066;-71
2021/05/05 14:29:55;;;;;;;1.52;0.60;;;;;;;;;;4983510;28;20073;-71
2021/05/05 14:32:22;;;;;;;1.85;0.70;;;;;;;;;;4982674;28;20807;-71
2021/05/05 14:34:48;;;;;;;1.27;0.60;;;;;;;;;;4986499;28;20030;-71
2021/05/05 14:37:15;;;;;;;1.25;0.77;;;;;;;;;;4999954;28;20069;-71
2021/05/05 14:39:41;;;;;;;1.08;0.60;;;;;;;;;;4985062;28;20093;-71
2021/05/05 14:42:13;;;;;;;1.08;0.70;;;;;;;;;;4987466;28;20442;-74
2021/05/05 14:44:57;;;;;;;1.63;0.70;;;;;;;;;;4969710;28;21678;-75
2021/05/05 14:50:09;;;;;;;1.98;0.68;;;;;;;;;;4983868;28;20081;-74
2021/05/05 14:52:35;;;;;;;6.07;0.90;;;;;;;;;;4983311;28;20556;-74
2021/05/05 14:55:02;;;;;;;1.67;0.60;;;;;;;;;;4986791;28;20070;-73
2021/05/05 14:57:32;;;;;;;1.00;0.60;;;;;;;;;;4982861;28;20062;-73
2021/05/05 14:59:58;;;;;;;2.03;0.80;;;;;;;;;;4984240;28;20054;-73
2021/05/05 15:02:25;;;;;;;2.42;0.93;;;;;;;;;;4982867;28;20608;-73
2021/05/05 15:04:51;;;;;;;1.05;0.70;;;;;;;;;;4982972;28;20474;-73
2021/05/05 15:07:18;;;;;;;1.38;0.60;;;;;;;;;;4984033;28;20058;-73
2021/05/05 15:13:01;;;;;;;1.17;0.70;;;;;;;;;;4984253;28;20062;-74
2021/05/05 15:36:29;;;;;;;2.35;0.70;;;;;;;;;;4982479;28;20497;-72
2021/05/05 15:39:46;;;;;;;1.90;0.57;;;;;;;;;;4978741;28;20081;-74
2021/05/05 15:41:46;;;;;;;1.08;0.55;;;;;;;;;;4989331;28;20152;-74